createdAt,value
2023-05-10T00:00:56.273Z,54.76
2023-05-10T00:03:23.254Z,54.84
2023-05-10T00:05:50.333Z,55.14
2023-05-10T00:08:17.170Z,55.39
2023-05-10T00:10:44.034Z,55.15
2023-05-10T00:13:10.918Z,55.18
2023-05-10T00:15:37.921Z,55.05
2023-05-10T00:18:04.776Z,55.28
2023-05-10T00:20:31.595Z,55.27
2023-05-10T00:22:58.457Z,55.12
2023-05-10T00:25:25.363Z,55.33
2023-05-10T00:27:52.220Z,55.36
2023-05-10T00:30:19.795Z,55.37
2023-05-10T00:32:46.757Z,55.46
2023-05-10T00:35:13.885Z,55.43
2023-05-10T00:37:41.197Z,55.40
2023-05-10T00:40:08.450Z,55.51
2023-05-10T00:42:35.281Z,55.60
2023-05-10T00:45:02.280Z,55.56
2023-05-10T00:47:29.989Z,55.67
2023-05-10T00:49:57.029Z,55.77
2023-05-10T00:52:24.633Z,55.96
2023-05-10T00:54:53.467Z,55.97
2023-05-10T00:57:20.676Z,55.83
2023-05-10T00:59:47.548Z,55.85
2023-05-10T01:02:14.668Z,55.94
2023-05-10T01:04:41.711Z,55.93
2023-05-10T01:07:08.644Z,56.02
2023-05-10T01:09:35.820Z,56.02
2023-05-10T01:12:04.468Z,56.18
2023-05-10T01:14:31.653Z,55.95
2023-05-10T01:16:58.540Z,56.02
2023-05-10T01:19:29.755Z,56.00
2023-05-10T01:22:43.563Z,56.08
2023-05-10T01:25:28.332Z,56.00
2023-05-10T01:28:16.627Z,55.96
2023-05-10T01:31:22.939Z,56.00
2023-05-10T01:34:00.272Z,55.97
2023-05-10T01:36:38.315Z,55.92
2023-05-10T01:39:20.055Z,55.80
2023-05-10T01:42:08.141Z,55.86
2023-05-10T01:44:52.744Z,55.81
2023-05-10T01:47:39.975Z,55.47
2023-05-10T01:50:19.523Z,55.61
2023-05-10T01:52:55.493Z,55.50
2023-05-10T01:55:27.396Z,55.42
2023-05-10T01:58:11.271Z,55.37
2023-05-10T02:00:44.309Z,55.15
2023-05-10T02:03:12.438Z,55.09
2023-05-10T02:05:40.638Z,55.18
2023-05-10T02:08:08.852Z,54.95
2023-05-10T02:10:38.779Z,55.02
2023-05-10T02:13:07.523Z,54.75
2023-05-10T02:15:35.138Z,54.80
2023-05-10T02:18:04.632Z,55.03
2023-05-10T02:20:33.632Z,54.82
2023-05-10T02:23:01.860Z,54.84
2023-05-10T02:25:30.786Z,54.78
2023-05-10T02:27:58.696Z,54.86
2023-05-10T02:30:26.663Z,54.96
2023-05-10T02:32:54.394Z,54.98
2023-05-10T02:35:23.389Z,55.00
2023-05-10T02:37:51.495Z,55.02
2023-05-10T02:40:20.312Z,54.94
2023-05-10T02:42:49.836Z,55.04
2023-05-10T02:45:22.283Z,55.03
2023-05-10T02:47:49.691Z,54.92
2023-05-10T02:50:17.103Z,54.95
2023-05-10T02:52:49.209Z,54.92
2023-05-10T02:55:17.814Z,54.79
2023-05-10T02:57:53.286Z,54.92
2023-05-10T03:00:20.385Z,54.56
2023-05-10T03:02:47.434Z,54.45
2023-05-10T03:05:14.430Z,54.43
2023-05-10T03:07:41.632Z,54.35
2023-05-10T03:10:09.116Z,54.40
2023-05-10T03:13:14.201Z,54.50
2023-05-10T03:15:59.629Z,54.38
2023-05-10T03:18:38.249Z,54.70
2023-05-10T03:21:09.874Z,54.45
2023-05-10T03:23:49.124Z,54.46
2023-05-10T03:26:21.730Z,54.48
2023-05-10T03:28:51.997Z,54.40
2023-05-10T03:31:19.240Z,54.08
2023-05-10T03:33:53.417Z,54.20
2023-05-10T03:36:26.695Z,54.12
2023-05-10T03:38:54.275Z,53.98
2023-05-10T03:41:21.588Z,54.00
2023-05-10T03:43:48.724Z,54.10
2023-05-10T03:46:15.796Z,53.92
2023-05-10T03:48:42.753Z,53.80
2023-05-10T03:51:09.596Z,53.74
2023-05-10T03:53:36.588Z,53.80
2023-05-10T03:56:03.633Z,53.81
2023-05-10T03:58:30.413Z,53.77
2023-05-10T04:00:57.258Z,53.72
2023-05-10T04:03:24.446Z,53.78
2023-05-10T04:06:03.010Z,53.80
2023-05-10T04:08:30.147Z,53.79
2023-05-10T04:11:11.444Z,53.87
2023-05-10T04:13:38.920Z,53.67
2023-05-10T04:16:06.234Z,53.60
2023-05-10T04:18:33.491Z,53.64
2023-05-10T04:21:00.315Z,53.55
2023-05-10T04:23:28.456Z,53.48
2023-05-10T04:26:01.798Z,53.63
2023-05-10T04:28:28.828Z,53.53
2023-05-10T04:31:03.444Z,53.48
2023-05-10T04:33:30.708Z,53.53
2023-05-10T04:35:58.152Z,53.51
2023-05-10T04:38:25.527Z,53.55
2023-05-10T04:40:52.421Z,53.49
2023-05-10T04:43:19.292Z,53.68
2023-05-10T04:45:46.248Z,53.71
2023-05-10T04:48:13.375Z,53.72
2023-05-10T04:50:40.961Z,53.73
2023-05-10T04:53:08.101Z,53.81
2023-05-10T04:55:34.967Z,53.85
2023-05-10T04:58:01.765Z,53.81
2023-05-10T05:00:28.569Z,53.86
2023-05-10T05:02:55.536Z,53.86
2023-05-10T05:05:22.470Z,54.04
2023-05-10T05:07:49.283Z,54.03
2023-05-10T05:10:16.467Z,54.02
2023-05-10T05:12:43.713Z,53.89
2023-05-10T05:15:11.600Z,53.84
2023-05-10T05:17:38.531Z,53.77
2023-05-10T05:20:06.363Z,53.75
2023-05-10T05:22:33.175Z,53.73
2023-05-10T05:25:00.087Z,53.82
2023-05-10T05:27:28.704Z,53.51
2023-05-10T05:29:56.540Z,53.79
2023-05-10T05:32:24.475Z,53.68
2023-05-10T05:34:51.572Z,53.95
2023-05-10T05:37:20.618Z,53.78
2023-05-10T05:39:47.454Z,53.79
2023-05-10T05:42:15.570Z,53.89
2023-05-10T05:44:42.377Z,53.82
2023-05-10T05:47:09.402Z,53.79
2023-05-10T05:49:36.221Z,53.63
2023-05-10T05:52:04.664Z,54.06
2023-05-10T05:54:32.782Z,54.18
2023-05-10T05:57:01.518Z,54.18
2023-05-10T05:59:28.792Z,54.31
2023-05-10T06:01:55.861Z,54.20
2023-05-10T06:04:22.840Z,54.17
2023-05-10T06:06:49.745Z,54.38
2023-05-10T06:09:16.851Z,54.12
2023-05-10T06:11:43.755Z,54.16
2023-05-10T06:14:11.212Z,54.18
2023-05-10T06:16:38.056Z,53.99
2023-05-10T06:19:05.162Z,54.26
2023-05-10T06:21:32.333Z,54.07
2023-05-10T06:23:59.324Z,54.03
2023-05-10T06:26:26.320Z,54.21
2023-05-10T06:28:53.124Z,54.16
2023-05-10T06:31:19.967Z,53.71
2023-05-10T06:33:46.800Z,53.80
2023-05-10T06:36:14.186Z,53.76
2023-05-10T06:38:41.195Z,53.61
2023-05-10T06:41:08.035Z,53.71
2023-05-10T06:43:35.114Z,53.90
2023-05-10T06:46:02.078Z,53.91
2023-05-10T06:48:29.093Z,53.79
2023-05-10T06:50:55.936Z,53.64
2023-05-10T06:53:22.858Z,53.45
2023-05-10T06:55:51.978Z,53.28
2023-05-10T06:58:18.918Z,53.14
2023-05-10T07:00:46.318Z,53.08
2023-05-10T07:03:13.267Z,52.74
2023-05-10T07:05:40.166Z,52.85
2023-05-10T07:08:07.031Z,52.71
2023-05-10T07:10:34.274Z,52.57
2023-05-10T07:13:02.208Z,52.64
2023-05-10T07:15:29.472Z,52.15
2023-05-10T07:17:56.507Z,52.23
2023-05-10T07:20:23.474Z,51.67
2023-05-10T07:22:50.288Z,51.45
2023-05-10T07:25:17.397Z,50.88
2023-05-10T07:27:44.565Z,51.24
2023-05-10T07:30:12.172Z,50.83
2023-05-10T07:32:40.402Z,51.44
2023-05-10T07:35:07.793Z,51.90
2023-05-10T07:37:34.692Z,51.79
2023-05-10T07:40:01.524Z,51.56
2023-05-10T07:42:28.325Z,51.28
2023-05-10T07:44:55.104Z,51.30
2023-05-10T07:47:22.098Z,51.54
2023-05-10T07:49:48.932Z,51.63
2023-05-10T07:52:16.356Z,51.79
2023-05-10T07:54:43.256Z,51.38
2023-05-10T07:57:10.159Z,51.42
2023-05-10T07:59:37.317Z,51.16
2023-05-10T08:02:04.298Z,51.01
2023-05-10T08:04:31.201Z,50.63
2023-05-10T08:06:58.036Z,50.68
2023-05-10T08:09:25.248Z,50.20
2023-05-10T08:11:52.277Z,50.19
2023-05-10T08:14:19.182Z,50.00
2023-05-10T08:16:46.089Z,49.72
2023-05-10T08:19:12.922Z,49.74
2023-05-10T08:21:41.414Z,49.23
2023-05-10T08:24:08.372Z,49.39
2023-05-10T08:26:35.271Z,48.90
2023-05-10T08:29:02.068Z,48.95
2023-05-10T08:31:28.903Z,49.32
2023-05-10T08:33:55.882Z,49.63
2023-05-10T08:36:25.211Z,49.42
2023-05-10T08:38:53.072Z,49.44
2023-05-10T08:41:25.494Z,49.65
2023-05-10T08:43:54.188Z,49.04
2023-05-10T08:46:23.700Z,49.13
2023-05-10T08:48:52.998Z,48.76
2023-05-10T08:51:24.848Z,48.96
2023-05-10T08:53:52.274Z,48.86
2023-05-10T08:56:20.607Z,48.90
2023-05-10T08:58:49.764Z,48.95
2023-05-10T09:01:19.244Z,49.24
2023-05-10T09:03:48.623Z,48.67
2023-05-10T09:06:16.360Z,48.87
2023-05-10T09:08:43.827Z,48.80
2023-05-10T09:11:12.344Z,48.43
2023-05-10T09:13:39.279Z,48.36
2023-05-10T09:16:13.907Z,48.19
2023-05-10T09:18:48.329Z,47.83
2023-05-10T09:21:15.270Z,47.82
2023-05-10T09:23:48.710Z,47.98
2023-05-10T09:26:15.783Z,48.15
2023-05-10T09:29:01.453Z,48.32
2023-05-10T09:32:00.191Z,48.58
2023-05-10T09:34:32.827Z,48.59
2023-05-10T09:37:03.636Z,48.38
2023-05-10T09:39:36.308Z,48.35
2023-05-10T09:42:10.980Z,48.00
2023-05-10T09:44:38.963Z,47.69
2023-05-10T09:47:06.662Z,47.90
2023-05-10T09:49:34.078Z,48.25
2023-05-10T09:52:05.937Z,48.48
2023-05-10T09:54:34.445Z,48.95
2023-05-10T09:57:01.925Z,48.47
2023-05-10T09:59:30.076Z,48.47
2023-05-10T10:04:51.885Z,48.58
2023-05-10T10:07:25.668Z,48.28
2023-05-10T10:09:52.938Z,47.34
2023-05-10T10:12:21.001Z,47.57
2023-05-10T10:14:50.429Z,47.34
2023-05-10T10:17:18.229Z,47.35
2023-05-10T10:19:46.177Z,47.48
2023-05-10T10:22:13.068Z,47.57
2023-05-10T10:24:43.346Z,47.63
2023-05-10T10:27:50.405Z,47.81
2023-05-10T10:30:17.208Z,47.76
2023-05-10T10:33:27.170Z,47.69
2023-05-10T10:35:56.591Z,47.93
2023-05-10T10:38:23.745Z,47.80
2023-05-10T10:41:04.413Z,47.76
2023-05-10T10:43:31.480Z,47.97
2023-05-10T10:46:18.713Z,48.30
2023-05-10T10:49:10.114Z,48.40
2023-05-10T10:51:40.784Z,48.36
2023-05-10T10:54:11.885Z,47.88
2023-05-10T10:56:39.050Z,47.41
2023-05-10T10:59:05.972Z,46.96
2023-05-10T11:01:36.302Z,47.09
2023-05-10T11:04:06.494Z,47.10
2023-05-10T11:06:35.033Z,47.43
2023-05-10T11:09:10.083Z,46.81
2023-05-10T11:11:49.760Z,46.59
2023-05-10T11:14:23.389Z,46.44
2023-05-10T11:16:50.489Z,46.40
2023-05-10T11:19:18.752Z,46.47
2023-05-10T11:22:14.337Z,46.88
2023-05-10T11:24:41.170Z,46.88
2023-05-10T11:27:08.087Z,46.94
2023-05-10T11:29:34.888Z,47.10
2023-05-10T11:32:01.791Z,47.30
2023-05-10T11:34:35.763Z,47.57
2023-05-10T11:37:02.807Z,47.06
2023-05-10T11:39:32.154Z,47.13
2023-05-10T11:42:00.116Z,47.20
2023-05-10T11:44:34.401Z,46.32
2023-05-10T11:47:02.711Z,45.66
2023-05-10T11:49:29.621Z,45.40
2023-05-10T11:52:09.607Z,44.92
2023-05-10T11:54:36.806Z,45.56
2023-05-10T11:57:04.230Z,44.91
2023-05-10T11:59:31.317Z,44.32
2023-05-10T12:01:58.400Z,44.78
2023-05-10T12:04:25.667Z,44.98
2023-05-10T12:06:52.630Z,45.36
2023-05-10T12:09:31.521Z,45.56
2023-05-10T12:12:03.748Z,45.14
2023-05-10T12:14:35.488Z,45.37
2023-05-10T12:17:02.331Z,44.95
2023-05-10T12:19:29.208Z,44.88
2023-05-10T12:21:56.058Z,44.84
2023-05-10T12:24:22.876Z,44.98
2023-05-10T12:26:49.733Z,44.58
2023-05-10T12:29:19.482Z,45.12
2023-05-10T12:32:00.504Z,44.61
2023-05-10T12:34:36.935Z,44.03
2023-05-10T12:37:04.486Z,44.63
2023-05-10T12:39:45.528Z,44.18
2023-05-10T12:42:12.879Z,44.08
2023-05-10T12:44:40.619Z,43.88
2023-05-10T12:47:07.536Z,43.51
2023-05-10T12:49:34.827Z,43.36
2023-05-10T12:52:01.672Z,42.87
2023-05-10T12:54:28.830Z,43.15
2023-05-10T12:56:55.866Z,42.60
2023-05-10T12:59:23.617Z,42.61
2023-05-10T13:01:50.430Z,42.83
2023-05-10T13:04:17.228Z,42.47
2023-05-10T13:06:44.126Z,42.80
2023-05-10T13:09:10.969Z,42.79
2023-05-10T13:11:38.028Z,41.63
2023-05-10T13:14:04.842Z,41.57
2023-05-10T13:16:32.288Z,41.71
2023-05-10T13:18:59.434Z,41.30
2023-05-10T13:21:26.409Z,41.28
2023-05-10T13:23:53.874Z,41.79
2023-05-10T13:26:21.016Z,42.40
2023-05-10T13:28:47.964Z,41.78
2023-05-10T13:31:14.842Z,41.26
2023-05-10T13:33:41.620Z,41.04
2023-05-10T13:36:08.566Z,41.17
2023-05-10T13:38:35.456Z,41.59
2023-05-10T13:41:02.284Z,41.16
2023-05-10T13:43:30.363Z,41.72
2023-05-10T13:45:57.266Z,42.13
2023-05-10T13:48:24.080Z,41.94
2023-05-10T13:50:51.038Z,41.64
2023-05-10T13:53:17.839Z,41.81
2023-05-10T13:55:44.609Z,41.62
2023-05-10T13:58:11.635Z,41.61
2023-05-10T14:00:38.437Z,41.77
2023-05-10T14:03:06.253Z,41.57
2023-05-10T14:05:33.548Z,41.60
2023-05-10T14:08:00.357Z,41.03
2023-05-10T14:10:27.252Z,41.24
2023-05-10T14:12:54.120Z,40.77
2023-05-10T14:15:20.916Z,40.85
2023-05-10T14:17:47.760Z,40.69
2023-05-10T14:20:14.598Z,40.70
2023-05-10T14:22:41.879Z,40.24
2023-05-10T14:25:09.743Z,40.33
2023-05-10T14:27:36.521Z,40.63
2023-05-10T14:30:03.607Z,40.56
2023-05-10T14:32:30.420Z,40.27
2023-05-10T14:34:57.257Z,40.60
2023-05-10T14:37:24.073Z,40.22
2023-05-10T14:39:50.837Z,40.03
2023-05-10T14:42:17.671Z,39.31
2023-05-10T14:44:44.503Z,39.18
2023-05-10T14:47:12.308Z,39.34
2023-05-10T14:49:39.319Z,39.61
2023-05-10T14:52:06.493Z,39.72
2023-05-10T14:54:34.406Z,39.47
2023-05-10T14:57:01.581Z,38.93
2023-05-10T14:59:28.396Z,39.21
2023-05-10T15:01:55.607Z,38.77
2023-05-10T15:04:23.573Z,38.51
2023-05-10T15:06:51.172Z,38.72
2023-05-10T15:09:18.048Z,38.75
2023-05-10T15:11:45.380Z,38.81
2023-05-10T15:14:12.198Z,38.68
2023-05-10T15:16:39.063Z,38.51
2023-05-10T15:19:06.296Z,38.61
2023-05-10T15:21:39.446Z,38.29
2023-05-10T15:24:06.929Z,37.98
2023-05-10T15:26:33.916Z,38.33
2023-05-10T15:29:00.809Z,38.41
2023-05-10T15:31:28.155Z,38.81
2023-05-10T15:34:02.266Z,38.50
2023-05-10T15:36:29.093Z,38.33
2023-05-10T15:38:56.757Z,38.79
2023-05-10T15:41:24.463Z,38.84
2023-05-10T15:43:51.351Z,38.63
2023-05-10T15:46:18.186Z,38.43
2023-05-10T15:48:45.113Z,38.22
2023-05-10T15:51:12.317Z,38.29
2023-05-10T15:53:46.527Z,38.02
2023-05-10T15:56:19.965Z,37.93
2023-05-10T15:58:47.354Z,38.56
2023-05-10T16:01:14.268Z,38.30
2023-05-10T16:03:41.261Z,38.15
2023-05-10T16:06:08.127Z,38.51
2023-05-10T16:08:35.352Z,38.02
2023-05-10T16:11:02.604Z,38.35
2023-05-10T16:13:30.004Z,38.48
2023-05-10T16:15:58.073Z,38.58
2023-05-10T16:18:25.189Z,38.88
2023-05-10T16:20:53.213Z,39.09
2023-05-10T16:23:20.162Z,39.03
2023-05-10T16:25:46.994Z,39.40
2023-05-10T16:28:13.758Z,39.47
2023-05-10T16:30:40.837Z,39.40
2023-05-10T16:33:07.692Z,40.02
2023-05-10T16:35:34.568Z,39.94
2023-05-10T16:38:01.362Z,40.05
2023-05-10T16:40:28.172Z,39.96
2023-05-10T16:42:55.007Z,40.20
2023-05-10T16:45:21.857Z,40.00
2023-05-10T16:47:48.651Z,40.10
2023-05-10T16:50:15.652Z,40.00
2023-05-10T16:52:42.528Z,40.21
2023-05-10T16:55:09.578Z,40.27
2023-05-10T16:57:36.396Z,40.57
2023-05-10T17:00:04.980Z,40.52
2023-05-10T17:02:31.955Z,40.13
2023-05-10T17:04:58.814Z,40.11
2023-05-10T17:07:26.351Z,39.80
2023-05-10T17:09:53.305Z,40.09
2023-05-10T17:12:20.486Z,40.27
2023-05-10T17:14:47.523Z,40.46
2023-05-10T17:17:14.339Z,40.70
2023-05-10T17:19:44.728Z,40.84
2023-05-10T17:22:13.597Z,40.71
2023-05-10T17:24:40.635Z,40.60
2023-05-10T17:27:07.497Z,40.64
2023-05-10T17:29:34.319Z,40.88
2023-05-10T17:32:01.283Z,40.99
2023-05-10T17:34:28.227Z,41.41
2023-05-10T17:36:55.441Z,40.98
2023-05-10T17:39:22.409Z,40.98
2023-05-10T17:41:49.243Z,41.15
2023-05-10T17:44:16.194Z,41.37
2023-05-10T17:46:43.401Z,41.37
2023-05-10T17:49:10.411Z,41.26
2023-05-10T17:51:37.291Z,41.39
2023-05-10T17:54:04.298Z,41.59
2023-05-10T17:56:31.161Z,41.49
2023-05-10T17:58:57.936Z,41.81
2023-05-10T18:01:24.768Z,41.81
2023-05-10T18:03:52.739Z,41.70
2023-05-10T18:06:19.548Z,41.71
2023-05-10T18:08:46.360Z,41.63
2023-05-10T18:11:13.263Z,41.98
2023-05-10T18:13:40.161Z,41.60
2023-05-10T18:16:08.696Z,41.98
2023-05-10T18:18:35.933Z,42.22
2023-05-10T18:21:03.567Z,41.33
2023-05-10T18:23:30.389Z,41.55
2023-05-10T18:25:57.579Z,41.31
2023-05-10T18:28:24.621Z,41.55
2023-05-10T18:30:51.688Z,41.30
2023-05-10T18:33:18.777Z,41.55
2023-05-10T18:35:46.127Z,41.34
2023-05-10T18:38:13.613Z,41.23
2023-05-10T18:40:41.356Z,41.64
2023-05-10T18:43:08.845Z,41.34
2023-05-10T18:45:35.678Z,41.39
2023-05-10T18:48:02.849Z,41.57
2023-05-10T18:50:29.744Z,41.36
2023-05-10T18:52:56.576Z,41.58
2023-05-10T18:55:25.789Z,41.54
2023-05-10T18:57:52.667Z,41.73
2023-05-10T19:00:20.377Z,41.87
2023-05-10T19:02:47.672Z,41.86
2023-05-10T19:05:15.702Z,42.39
2023-05-10T19:07:43.674Z,42.36
2023-05-10T19:10:12.970Z,42.83
2023-05-10T19:12:41.713Z,42.71
2023-05-10T19:15:09.438Z,42.38
2023-05-10T19:17:38.379Z,42.67
2023-05-10T19:20:07.517Z,42.35
2023-05-10T19:22:47.178Z,42.42
2023-05-10T19:25:21.725Z,42.59
2023-05-10T19:27:48.577Z,42.64
2023-05-10T19:30:16.899Z,42.84
2023-05-10T19:32:44.177Z,42.74
2023-05-10T19:35:12.588Z,42.80
2023-05-10T19:37:40.984Z,42.88
2023-05-10T19:40:09.532Z,43.13
2023-05-10T19:42:36.332Z,43.21
2023-05-10T19:45:03.495Z,43.05
2023-05-10T19:47:31.099Z,43.32
2023-05-10T19:49:58.195Z,43.40
2023-05-10T19:52:24.992Z,43.31
2023-05-10T19:54:51.896Z,43.33
2023-05-10T19:57:18.797Z,43.38
2023-05-10T19:59:45.585Z,43.45
2023-05-10T20:02:12.408Z,43.64
2023-05-10T20:04:39.263Z,43.50
2023-05-10T20:07:09.130Z,43.30
2023-05-10T20:09:35.938Z,43.70
2023-05-10T20:12:02.704Z,43.20
2023-05-10T20:14:30.841Z,43.55
2023-05-10T20:16:57.764Z,43.70
2023-05-10T20:19:25.003Z,43.78
2023-05-10T20:21:51.819Z,43.80
2023-05-10T20:24:19.299Z,43.62
2023-05-10T20:26:46.169Z,43.75
2023-05-10T20:29:13.221Z,43.63
2023-05-10T20:31:40.131Z,43.59
2023-05-10T20:34:07.092Z,43.81
2023-05-10T20:36:33.887Z,43.73
2023-05-10T20:39:00.716Z,43.70
2023-05-10T20:41:27.533Z,43.95
2023-05-10T20:43:54.308Z,44.03
2023-05-10T20:46:21.293Z,44.07
2023-05-10T20:48:48.225Z,43.96
2023-05-10T20:51:15.031Z,44.21
2023-05-10T20:53:41.935Z,44.25
2023-05-10T20:56:08.722Z,44.30
2023-05-10T20:58:35.873Z,44.11
2023-05-10T21:01:02.868Z,44.34
2023-05-10T21:03:29.955Z,44.20
2023-05-10T21:05:56.786Z,44.21
2023-05-10T21:08:23.544Z,44.25
2023-05-10T21:10:50.438Z,44.31
2023-05-10T21:13:17.361Z,44.58
2023-05-10T21:15:44.316Z,44.55
2023-05-10T21:18:11.155Z,44.45
2023-05-10T21:20:38.010Z,44.54
2023-05-10T21:23:05.011Z,44.51
2023-05-10T21:25:31.801Z,44.65
2023-05-10T21:27:58.601Z,44.62
2023-05-10T21:30:25.680Z,44.64
2023-05-10T21:32:53.774Z,44.70
2023-05-10T21:35:20.665Z,44.84
2023-05-10T21:37:47.448Z,45.11
2023-05-10T21:40:14.349Z,45.08
2023-05-10T21:42:41.230Z,45.07
2023-05-10T21:45:08.398Z,45.37
2023-05-10T21:47:35.298Z,45.36
2023-05-10T21:50:02.143Z,45.57
2023-05-10T21:52:29.309Z,45.67
2023-05-10T21:54:56.166Z,45.72
2023-05-10T21:57:23.337Z,45.98
2023-05-10T21:59:50.182Z,45.85
2023-05-10T22:02:17.017Z,46.02
2023-05-10T22:04:43.854Z,46.23
2023-05-10T22:07:11.276Z,46.25
2023-05-10T22:09:38.143Z,46.41
2023-05-10T22:12:05.205Z,46.43
2023-05-10T22:14:32.141Z,46.49
2023-05-10T22:16:59.029Z,46.53
2023-05-10T22:19:25.924Z,46.66
2023-05-10T22:21:53.159Z,46.59
2023-05-10T22:24:19.913Z,46.76
2023-05-10T22:26:46.728Z,46.47
2023-05-10T22:29:13.525Z,46.75
2023-05-10T22:31:40.758Z,46.75
2023-05-10T22:34:07.765Z,46.76
2023-05-10T22:36:34.594Z,46.61
2023-05-10T22:39:01.602Z,46.79
2023-05-10T22:41:28.427Z,46.78
2023-05-10T22:43:55.510Z,46.54
2023-05-10T22:46:22.557Z,46.70
2023-05-10T22:48:49.579Z,46.78
2023-05-10T22:51:16.646Z,46.78
2023-05-10T22:53:43.486Z,46.97
2023-05-10T22:56:10.284Z,47.12
2023-05-10T22:58:37.163Z,46.97
2023-05-10T23:01:04.131Z,47.04
2023-05-10T23:03:31.011Z,47.19
2023-05-10T23:05:57.776Z,47.27
2023-05-10T23:08:24.596Z,46.95
2023-05-10T23:10:51.649Z,47.07
2023-05-10T23:13:20.796Z,47.12
2023-05-10T23:15:48.204Z,47.11
2023-05-10T23:18:15.458Z,47.49
2023-05-10T23:20:43.113Z,47.27
2023-05-10T23:23:10.931Z,47.49
2023-05-10T23:25:38.190Z,47.53
2023-05-10T23:28:05.348Z,47.31
2023-05-10T23:30:32.162Z,47.48
2023-05-10T23:32:59.147Z,47.59
2023-05-10T23:35:26.141Z,47.33
2023-05-10T23:37:52.918Z,47.32
2023-05-10T23:40:19.968Z,47.61
2023-05-10T23:42:46.854Z,47.60
2023-05-10T23:45:13.607Z,47.64
2023-05-10T23:47:40.496Z,47.74
2023-05-10T23:50:08.021Z,47.46
2023-05-10T23:52:34.829Z,47.72
2023-05-10T23:55:01.676Z,47.71
2023-05-10T23:57:28.689Z,47.69
2023-05-10T23:59:55.492Z,47.82
